Time;durP1;ratioP1;P1;durP2;ratioP2;P2;SDS_P1;SDS_P2;PMS_P1;PMS_P2;Temp;Humidity;BMP_temperature;BMP_pressure;BME280_temperature;BME280_humidity;BME280_pressure;Samples;Min_cycle;Max_cycle;Signal;HPM_P1;HPM_P2
2022/03/20 00:01:36;;;;;;;3.45;2.03;;;10.90;69.60;;;;;;10484124;28;20070;-65
2022/03/20 00:06:37;;;;;;;2.92;2.03;;;10.90;69.80;;;;;;10470519;28;20135;-68
2022/03/20 00:11:37;;;;;;;2.88;2.03;;;10.90;69.90;;;;;;10484416;28;20025;-67
2022/03/20 00:16:39;;;;;;;4.50;2.10;;;10.80;69.90;;;;;;10484152;28;20102;-63
2022/03/20 00:21:39;;;;;;;3.15;2.00;;;10.80;69.90;;;;;;10483752;28;20036;-61
2022/03/20 00:26:41;;;;;;;4.20;2.28;;;10.80;70.00;;;;;;10483380;28;20102;-68
2022/03/20 00:31:42;;;;;;;5.97;2.00;;;10.80;70.10;;;;;;10483014;28;20028;-67
2022/03/20 00:36:43;;;;;;;3.78;1.98;;;10.80;70.30;;;;;;10484076;28;20025;-63
2022/03/20 00:41:44;;;;;;;5.72;2.10;;;10.70;70.30;;;;;;10483831;28;20111;-66
2022/03/20 00:46:44;;;;;;;4.35;2.25;;;10.80;70.40;;;;;;10484199;28;20041;-63
2022/03/20 00:51:45;;;;;;;2.78;2.03;;;10.70;70.40;;;;;;10455002;28;20053;-62
2022/03/20 00:56:46;;;;;;;3.95;2.45;;;10.70;71.10;;;;;;10448242;28;20033;-63
2022/03/20 01:01:47;;;;;;;4.30;2.55;;;10.70;70.60;;;;;;10490423;28;20543;-67
2022/03/20 01:06:47;;;;;;;4.47;2.08;;;10.60;70.70;;;;;;10482421;28;20040;-65
2022/03/20 01:11:48;;;;;;;5.80;2.00;;;10.60;70.80;;;;;;10490780;28;20040;-68
2022/03/20 01:16:49;;;;;;;3.22;1.73;;;10.60;70.90;;;;;;10489966;28;20094;-62
2022/03/20 01:21:51;;;;;;;4.75;2.83;;;10.60;71.00;;;;;;10489006;28;20025;-63
2022/03/20 01:26:52;;;;;;;3.42;2.20;;;10.50;71.10;;;;;;10476337;28;20465;-63
2022/03/20 01:31:53;;;;;;;3.90;2.10;;;10.50;71.10;;;;;;10488687;28;20032;-63
2022/03/20 01:36:54;;;;;;;5.57;2.28;;;10.50;71.30;;;;;;10483788;28;20499;-67
2022/03/20 01:41:55;;;;;;;3.95;2.60;;;10.50;71.30;;;;;;10484360;28;20073;-68
2022/03/20 01:46:56;;;;;;;5.35;2.42;;;10.50;71.40;;;;;;10488628;28;20786;-66
2022/03/20 01:52:24;;;;;;;5.82;2.25;;;10.40;71.50;;;;;;10488158;28;20052;-62
2022/03/20 01:57:26;;;;;;;6.80;2.35;;;10.40;71.50;;;;;;10478502;28;20059;-66
2022/03/20 02:02:27;;;;;;;6.20;2.30;;;10.40;71.50;;;;;;10473579;28;20054;-68
2022/03/20 02:07:29;;;;;;;5.97;2.67;;;10.40;71.60;;;;;;10487232;28;20086;-67
2022/03/20 02:12:30;;;;;;;5.38;2.83;;;10.50;71.70;;;;;;10487732;28;20025;-65
2022/03/20 02:17:31;;;;;;;4.03;2.47;;;10.30;71.60;;;;;;10487730;28;20013;-67
2022/03/20 02:22:32;;;;;;;5.50;2.70;;;10.30;71.60;;;;;;10486812;28;20039;-65
2022/03/20 02:27:38;;;;;;;6.30;3.40;;;10.30;71.60;;;;;;10486688;28;20043;-67
2022/03/20 02:32:51;;;;;;;6.43;3.17;;;10.30;71.60;;;;;;10485862;28;20036;-68
2022/03/20 02:37:53;;;;;;;5.50;3.25;;;10.20;71.40;;;;;;10488698;28;20021;-68
2022/03/20 02:42:54;;;;;;;7.45;3.30;;;10.20;71.40;;;;;;10486176;28;20032;-67
2022/03/20 02:47:56;;;;;;;6.00;3.60;;;10.20;71.40;;;;;;10486702;28;20072;-68
2022/03/20 02:53:02;;;;;;;5.78;3.45;;;10.10;71.40;;;;;;10475874;28;20253;-68
2022/03/20 02:58:11;;;;;;;9.90;3.78;;;10.10;71.40;;;;;;10484945;28;20028;-67
2022/03/20 03:03:13;;;;;;;;;;;10.10;71.50;;;;;;10472834;28;20470;-68
2022/03/20 03:13:40;;;;;;;9.30;3.60;;;10.00;71.40;;;;;;10474131;28;20029;-65
2022/03/20 03:18:44;;;;;;;6.40;3.50;;;10.00;71.50;;;;;;10479807;28;20025;-68
2022/03/20 03:23:45;;;;;;;7.65;3.28;;;10.50;71.90;;;;;;10476864;28;20035;-67
2022/03/20 03:28:46;;;;;;;8.27;3.78;;;10.00;71.70;;;;;;10484624;28;20036;-66
2022/03/20 03:39:07;;;;;;;6.40;3.55;;;9.90;71.70;;;;;;10484481;28;20399;-68
2022/03/20 03:44:08;;;;;;;5.15;3.35;;;10.00;71.80;;;;;;10484307;28;20040;-67
2022/03/20 03:49:09;;;;;;;6.45;3.55;;;9.90;71.80;;;;;;10483736;28;20403;-67
2022/03/20 03:54:10;;;;;;;5.38;3.63;;;9.80;71.80;;;;;;10484572;28;20056;-68
2022/03/20 03:59:11;;;;;;;8.93;4.35;;;9.80;71.90;;;;;;10483238;28;20574;-68
2022/03/20 04:04:14;;;;;;;7.45;4.35;;;9.80;72.00;;;;;;10483802;28;20046;-65
2022/03/20 04:09:14;;;;;;;8.25;3.72;;;9.80;72.00;;;;;;10484062;28;20348;-67
2022/03/20 04:14:15;;;;;;;8.93;4.18;;;9.70;72.00;;;;;;10483865;28;20035;-62
2022/03/20 04:19:16;;;;;;;11.60;4.25;;;9.70;72.00;;;;;;10483664;28;20376;-67
2022/03/20 04:24:17;;;;;;;6.40;3.70;;;9.70;72.10;;;;;;10471806;28;20029;-69
2022/03/20 04:29:20;;;;;;;9.93;4.30;;;9.80;72.20;;;;;;10487480;28;20033;-66
2022/03/20 04:34:22;;;;;;;9.48;4.25;;;9.60;72.10;;;;;;10478242;28;20024;-67
2022/03/20 04:39:24;;;;;;;9.93;4.50;;;9.60;72.10;;;;;;10491504;28;20150;-67
2022/03/20 04:44:25;;;;;;;8.07;4.75;;;9.60;72.20;;;;;;10491297;28;20028;-67
2022/03/20 05:00:06;;;;;;;10.48;5.13;;;9.50;72.10;;;;;;10490263;28;20451;-68
2022/03/20 05:05:09;;;;;;;11.90;5.20;;;9.50;72.20;;;;;;10482436;28;20487;-68
2022/03/20 05:15:29;;;;;;;9.15;4.88;;;9.50;72.20;;;;;;10490136;28;20032;-68
2022/03/20 05:20:30;;;;;;;10.32;5.50;;;9.40;72.10;;;;;;10488919;28;20364;-66
2022/03/20 05:25:32;;;;;;;8.52;5.38;;;9.40;72.20;;;;;;10488680;28;20032;-68
2022/03/20 05:30:33;;;;;;;9.50;4.97;;;9.40;72.10;;;;;;10487879;28;20407;-66
2022/03/20 05:35:34;;;;;;;11.27;5.43;;;9.40;72.00;;;;;;10489304;28;20035;-68
2022/03/20 05:40:36;;;;;;;12.55;5.68;;;9.40;72.00;;;;;;10487810;28;20157;-65
2022/03/20 05:45:39;;;;;;;10.73;6.03;;;9.40;71.90;;;;;;10488531;28;20070;-68
2022/03/20 05:50:39;;;;;;;10.30;6.35;;;9.30;71.80;;;;;;10475638;28;20123;-66
2022/03/20 06:00:59;;;;;;;;;;;9.30;71.90;;;;;;10489173;28;20413;-68
2022/03/20 06:06:00;;;;;;;10.90;5.93;;;9.30;72.70;;;;;;10487214;28;19919;-66
2022/03/20 06:11:02;;;;;;;13.63;6.32;;;9.30;71.70;;;;;;10488225;28;20047;-66
2022/03/20 06:16:04;;;;;;;13.70;6.60;;;9.30;71.60;;;;;;10487315;28;20246;-65
2022/03/20 06:21:06;;;;;;;10.35;6.18;;;9.20;71.40;;;;;;10487291;28;20043;-65
2022/03/20 06:26:10;;;;;;;12.88;6.57;;;9.20;71.50;;;;;;10486596;28;20085;-64
2022/03/20 06:31:12;;;;;;;12.65;6.65;;;9.20;71.50;;;;;;10461925;28;20103;-66
2022/03/20 06:36:14;;;;;;;12.77;7.03;;;9.20;71.50;;;;;;10486879;28;20512;-66
2022/03/20 06:41:15;;;;;;;11.88;7.00;;;9.20;71.60;;;;;;10486867;28;20115;-68
2022/03/20 06:46:16;;;;;;;14.60;7.45;;;9.20;71.50;;;;;;10486347;28;20077;-66
2022/03/20 06:51:17;;;;;;;13.80;7.50;;;9.20;71.50;;;;;;10484939;28;20101;-65
2022/03/20 06:56:17;;;;;;;11.02;6.35;;;9.20;71.50;;;;;;10486461;28;20433;-64
2022/03/20 07:01:18;;;;;;;11.02;6.88;;;9.20;71.50;;;;;;10474089;28;20032;-66
2022/03/20 07:06:20;;;;;;;13.73;7.60;;;9.20;71.30;;;;;;10475952;28;20391;-64
2022/03/20 07:11:21;;;;;;;10.85;7.03;;;9.20;71.40;;;;;;10485720;28;20096;-66
2022/03/20 07:16:28;;;;;;;11.35;6.45;;;9.20;71.30;;;;;;10484464;28;20025;-65
2022/03/20 07:21:32;;;;;;;12.07;6.93;;;9.20;71.30;;;;;;10471013;28;20040;-63
2022/03/20 07:31:52;;;;;;;14.43;6.90;;;9.30;71.30;;;;;;10481831;28;20055;-64
2022/03/20 07:36:53;;;;;;;13.18;7.15;;;9.50;71.40;;;;;;10479303;28;20081;-67
2022/03/20 07:41:53;;;;;;;13.65;7.53;;;9.30;71.30;;;;;;10456691;28;20032;-64
2022/03/20 07:46:54;;;;;;;16.02;7.43;;;9.30;71.10;;;;;;10484649;28;20395;-65
2022/03/20 07:51:57;;;;;;;14.07;7.10;;;9.40;71.10;;;;;;10471209;28;20040;-68
2022/03/20 07:56:58;;;;;;;14.75;7.45;;;9.50;71.00;;;;;;10484824;28;20035;-66
2022/03/20 08:01:59;;;;;;;15.02;7.13;;;9.50;71.40;;;;;;10481642;28;20029;-67
2022/03/20 08:07:00;;;;;;;12.50;7.20;;;9.60;70.90;;;;;;10484601;28;20044;-67
2022/03/20 08:12:01;;;;;;;12.13;6.97;;;9.60;70.80;;;;;;10492756;28;20031;-67
2022/03/20 08:17:06;;;;;;;14.77;7.78;;;9.60;70.70;;;;;;10492444;28;20429;-67
2022/03/20 08:22:06;;;;;;;14.60;7.97;;;9.70;70.70;;;;;;10472811;28;20387;-65
2022/03/20 08:27:07;;;;;;;15.45;8.13;;;9.70;70.80;;;;;;10491475;28;20036;-68
2022/03/20 08:32:08;;;;;;;14.23;8.07;;;9.70;71.00;;;;;;10473758;28;20454;-67
2022/03/20 08:37:09;;;;;;;17.40;8.40;;;9.70;70.90;;;;;;10491124;28;20029;-65
2022/03/20 08:42:10;;;;;;;14.10;8.30;;;9.70;71.00;;;;;;10490734;28;20028;-68
2022/03/20 08:47:11;;;;;;;12.25;7.10;;;9.70;71.00;;;;;;10490473;28;20343;-62
2022/03/20 08:52:12;;;;;;;14.15;7.40;;;9.80;71.10;;;;;;10489411;28;20159;-64
2022/03/20 08:57:15;;;;;;;13.57;7.53;;;9.80;71.10;;;;;;10491126;28;20433;-66
2022/03/20 09:02:15;;;;;;;14.13;7.60;;;9.80;71.20;;;;;;10489881;28;20387;-66
2022/03/20 09:07:16;;;;;;;14.45;7.97;;;9.80;71.10;;;;;;10461867;28;20036;-67
2022/03/20 09:12:16;;;;;;;14.57;8.20;;;9.80;71.00;;;;;;10480449;28;20037;-67
2022/03/20 09:22:36;;;;;;;16.70;8.20;;;9.90;70.90;;;;;;10469549;28;20532;-64
2022/03/20 09:27:37;;;;;;;16.38;8.40;;;9.90;70.80;;;;;;10477841;28;20040;-70
2022/03/20 09:32:38;;;;;;;15.52;8.70;;;9.90;71.00;;;;;;10489098;28;20054;-64
2022/03/20 09:37:39;;;;;;;15.15;7.97;;;10.00;71.00;;;;;;10479584;28;20039;-59
2022/03/20 09:42:41;;;;;;;14.85;7.50;;;10.00;71.20;;;;;;10479131;28;20454;-67
2022/03/20 09:47:42;;;;;;;16.30;8.00;;;10.10;71.50;;;;;;10478136;28;20036;-66
2022/03/20 09:52:42;;;;;;;14.50;7.78;;;10.10;71.50;;;;;;10476173;28;20465;-70
2022/03/20 09:57:43;;;;;;;13.98;8.35;;;10.10;71.80;;;;;;10462497;28;20475;-64
2022/03/20 10:02:47;;;;;;;15.90;8.23;;;10.20;71.90;;;;;;10474114;28;20120;-69
2022/03/20 10:07:48;;;;;;;15.50;7.97;;;9.30;71.50;;;;;;10487896;28;20650;-70
2022/03/20 10:12:55;;;;;;;16.42;8.50;;;10.20;71.80;;;;;;10487947;28;20035;-68
2022/03/20 10:18:20;;;;;;;15.05;8.63;;;10.30;71.90;;;;;;10480240;28;20093;-63
2022/03/20 10:23:31;;;;;;;15.35;8.18;;;10.40;72.30;;;;;;10460511;28;20044;-72
2022/03/20 10:28:39;;;;;;;16.27;9.40;;;10.40;71.80;;;;;;10478855;28;20028;-70
2022/03/20 10:33:41;;;;;;;17.20;8.18;;;10.50;71.80;;;;;;10451482;28;20021;-68
2022/03/20 10:38:48;;;;;;;15.35;8.02;;;10.60;71.80;;;;;;10452101;28;20112;-64
2022/03/20 10:43:50;;;;;;;16.73;8.40;;;10.60;72.00;;;;;;10450437;28;20116;-64
2022/03/20 10:49:04;;;;;;;14.00;7.80;;;10.60;71.70;;;;;;10449610;28;20045;-65
2022/03/20 10:54:14;;;;;;;13.38;8.02;;;10.70;71.70;;;;;;10445771;28;20415;-70
2022/03/20 10:59:15;;;;;;;18.48;9.20;;;10.70;71.70;;;;;;10466631;28;20460;-68
2022/03/20 11:04:16;;;;;;;17.25;8.68;;;10.80;71.80;;;;;;10467952;28;20128;-61
2022/03/20 11:09:17;;;;;;;17.45;9.18;;;10.80;71.70;;;;;;10472902;28;20040;-64
2022/03/20 11:14:23;;;;;;;16.42;8.90;;;10.90;71.70;;;;;;10468029;28;20020;-68
2022/03/20 11:19:29;;;;;;;14.55;8.25;;;10.90;71.70;;;;;;10487440;28;20115;-66
2022/03/20 11:24:30;;;;;;;23.95;10.70;;;11.00;71.80;;;;;;10480476;28;20044;-67
2022/03/20 11:29:42;;;;;;;23.52;11.60;;;11.10;71.30;;;;;;10453812;28;20075;-74
2022/03/20 11:34:46;;;;;;;22.10;11.20;;;11.10;70.30;;;;;;10453539;28;20135;-63
2022/03/20 11:40:09;;;;;;;25.35;13.32;;;11.20;69.90;;;;;;10474071;28;20040;-72
2022/03/20 11:45:14;;;;;;;24.92;13.20;;;11.20;68.70;;;;;;10484582;28;20029;-68
2022/03/20 11:50:22;;;;;;;24.20;12.38;;;11.20;69.10;;;;;;10484102;28;20483;-69
2022/03/20 11:55:29;;;;;;;26.13;12.45;;;11.20;69.00;;;;;;10484536;28;20133;-69
2022/03/20 12:00:35;;;;;;;25.65;12.65;;;11.30;69.10;;;;;;10483833;28;20037;-69
2022/03/20 12:05:58;;;;;;;28.38;14.65;;;11.30;68.70;;;;;;10454873;28;20019;-73
2022/03/20 12:11:26;;;;;;;29.58;13.80;;;11.30;68.20;;;;;;10447091;28;20040;-68
2022/03/20 12:16:48;;;;;;;23.92;13.65;;;11.30;67.60;;;;;;10465945;28;20016;-67
2022/03/20 12:21:54;;;;;;;25.23;13.65;;;11.30;67.20;;;;;;10465055;28;20043;-67
2022/03/20 12:26:56;;;;;;;28.63;13.80;;;11.30;67.90;;;;;;10475550;28;20039;-68
2022/03/20 12:31:58;;;;;;;27.63;13.75;;;11.30;68.10;;;;;;10469461;28;20099;-62
2022/03/20 12:37:33;;;;;;;26.20;14.90;;;11.30;67.90;;;;;;10455845;28;20511;-62
2022/03/20 12:42:39;;;;;;;37.30;14.95;;;11.30;67.20;;;;;;10482622;28;20485;-61
2022/03/20 12:47:54;;;;;;;26.17;14.82;;;11.30;67.70;;;;;;10484431;28;20816;-62
2022/03/20 12:53:04;;;;;;;32.40;15.23;;;11.20;66.90;;;;;;10477242;28;20451;-62
2022/03/20 12:58:06;;;;;;;29.73;15.10;;;11.20;67.40;;;;;;10491199;28;20070;-59
2022/03/20 13:03:11;;;;;;;28.15;15.57;;;11.10;67.70;;;;;;10490357;28;20013;-60
2022/03/20 13:08:18;;;;;;;26.45;14.60;;;11.10;67.50;;;;;;10477208;28;20035;-62
2022/03/20 13:13:29;;;;;;;29.55;13.82;;;11.10;67.50;;;;;;10489804;28;20050;-65
2022/03/20 13:18:31;;;;;;;30.17;14.95;;;11.10;67.30;;;;;;10489403;28;20099;-61
2022/03/20 13:23:33;;;;;;;27.23;14.45;;;11.30;67.40;;;;;;10488613;28;20141;-61
2022/03/20 13:28:40;;;;;;;27.55;14.43;;;11.30;67.30;;;;;;10485012;28;20094;-59
2022/03/20 13:33:45;;;;;;;28.10;15.13;;;11.40;67.10;;;;;;10489530;28;20055;-65
2022/03/20 13:38:49;;;;;;;29.98;14.20;;;11.50;67.00;;;;;;10478658;28;20550;-62
2022/03/20 13:44:01;;;;;;;26.13;13.70;;;11.50;66.90;;;;;;10468616;28;20048;-61
2022/03/20 13:49:07;;;;;;;28.25;14.43;;;11.50;66.50;;;;;;10474597;28;20044;-66
2022/03/20 13:54:22;;;;;;;28.95;14.57;;;11.50;66.60;;;;;;10478222;28;20045;-64
2022/03/20 13:59:24;;;;;;;33.33;15.35;;;11.50;66.60;;;;;;10486950;28;20341;-62
2022/03/20 14:04:25;;;;;;;28.83;15.13;;;11.50;66.90;;;;;;10489130;28;20035;-66
2022/03/20 14:09:40;;;;;;;25.38;14.10;;;11.40;66.90;;;;;;10475003;28;20048;-67
2022/03/20 14:14:45;;;;;;;26.23;14.75;;;11.40;66.80;;;;;;10487900;28;20028;-66
2022/03/20 14:19:47;;;;;;;26.15;13.73;;;11.30;67.10;;;;;;10487484;28;20041;-65
2022/03/20 14:24:54;;;;;;;32.28;14.85;;;11.30;67.20;;;;;;10485376;28;20501;-67
2022/03/20 14:40:43;;;;;;;32.17;15.63;;;11.20;67.00;;;;;;10486506;28;20089;-63
2022/03/20 14:45:44;;;;;;;29.58;14.65;;;11.20;67.00;;;;;;10486505;28;20020;-66
2022/03/20 14:50:45;;;;;;;27.48;14.70;;;11.20;67.10;;;;;;10486024;28;20091;-66
2022/03/20 14:55:45;;;;;;;24.95;13.95;;;11.20;67.80;;;;;;10485764;28;20057;-66
2022/03/20 15:00:47;;;;;;;32.25;16.02;;;11.20;67.30;;;;;;10485632;28;20466;-63
2022/03/20 15:05:53;;;;;;;30.58;15.60;;;11.20;67.30;;;;;;10480561;28;20467;-64
2022/03/20 15:16:13;;;;;;;29.77;16.23;;;11.10;67.70;;;;;;10485554;28;20478;-63
2022/03/20 15:21:14;;;;;;;30.45;15.75;;;11.10;67.90;;;;;;10453858;28;20025;-65
2022/03/20 15:26:16;;;;;;;30.42;15.57;;;11.10;68.20;;;;;;10484993;28;20040;-67
2022/03/20 15:31:16;;;;;;;26.83;14.68;;;11.10;68.50;;;;;;10480045;28;20028;-64
2022/03/20 15:36:22;;;;;;;32.92;16.65;;;11.10;68.80;;;;;;10486515;28;20025;-65
2022/03/20 15:41:25;;;;;;;31.23;15.75;;;11.00;69.00;;;;;;10484514;28;20036;-69
2022/03/20 15:46:26;;;;;;;37.50;17.42;;;11.00;69.30;;;;;;10453869;28;20394;-68
2022/03/20 15:51:26;;;;;;;34.08;17.75;;;11.00;69.60;;;;;;10473350;28;20056;-73
2022/03/20 15:56:27;;;;;;;28.40;17.02;;;10.90;69.80;;;;;;10471646;28;20056;-74
2022/03/20 16:01:28;;;;;;;31.60;16.65;;;10.90;70.00;;;;;;10471567;28;20029;-65
2022/03/20 16:06:29;;;;;;;31.52;17.40;;;10.90;70.40;;;;;;10476174;28;20108;-64
2022/03/20 16:11:32;;;;;;;32.53;16.73;;;10.90;71.40;;;;;;10469994;28;20036;-63
2022/03/20 16:16:33;;;;;;;31.75;16.65;;;10.80;71.10;;;;;;10478404;28;20048;-65
2022/03/20 16:21:34;;;;;;;33.97;17.73;;;10.80;71.50;;;;;;10471896;28;20549;-65
2022/03/20 16:32:02;;;;;;;34.63;17.73;;;10.80;72.10;;;;;;10482456;28;20036;-63
2022/03/20 16:37:03;;;;;;;32.67;17.02;;;10.80;72.40;;;;;;10486235;28;20020;-65
2022/03/20 16:42:05;;;;;;;35.28;17.67;;;10.70;72.40;;;;;;10483976;28;20033;-64
2022/03/20 16:47:06;;;;;;;35.30;17.73;;;10.70;72.70;;;;;;10479411;28;20036;-65
2022/03/20 16:52:06;;;;;;;34.10;17.75;;;10.70;72.80;;;;;;10485402;28;20457;-66
2022/03/20 16:57:07;;;;;;;33.22;17.67;;;10.70;73.00;;;;;;10481794;28;20025;-65
2022/03/20 17:02:08;;;;;;;32.00;17.73;;;10.70;73.10;;;;;;10468534;28;20368;-64
2022/03/20 17:07:08;;;;;;;35.17;17.88;;;10.80;73.20;;;;;;10462842;28;20032;-68
2022/03/20 17:12:09;;;;;;;35.03;18.50;;;10.80;73.40;;;;;;10482047;28;20132;-62
2022/03/20 17:17:12;;;;;;;38.88;19.38;;;10.70;73.80;;;;;;10470833;28;20075;-66
2022/03/20 17:22:13;;;;;;;38.15;19.67;;;10.70;74.40;;;;;;10457154;28;20021;-61
2022/03/20 17:27:16;;;;;;;37.75;19.58;;;10.70;74.60;;;;;;10473658;28;20040;-68
2022/03/20 17:32:16;;;;;;;39.90;20.23;;;10.70;74.90;;;;;;10452896;28;20395;-64
2022/03/20 17:37:17;;;;;;;40.17;19.20;;;10.60;75.10;;;;;;10479773;28;20033;-64
2022/03/20 17:42:20;;;;;;;40.17;21.38;;;10.50;75.40;;;;;;10482877;28;20477;-65
2022/03/20 17:47:21;;;;;;;39.33;19.65;;;10.50;75.90;;;;;;10483760;28;20484;-66
2022/03/20 17:52:25;;;;;;;35.75;19.25;;;10.40;76.00;;;;;;10488073;28;21193;-67
2022/03/20 17:57:29;;;;;;;36.97;19.50;;;10.40;75.90;;;;;;10470910;28;20449;-65
2022/03/20 18:07:51;;;;;;;39.70;19.90;;;10.30;75.90;;;;;;10486904;28;20082;-63
2022/03/20 18:12:52;;;;;;;38.55;19.25;;;10.30;75.90;;;;;;10466897;28;20033;-61
2022/03/20 18:17:53;;;;;;;37.08;18.60;;;10.40;75.90;;;;;;10487880;28;20040;-65
2022/03/20 18:22:56;;;;;;;37.58;19.23;;;10.30;75.90;;;;;;10479346;28;20162;-64
2022/03/20 18:27:58;;;;;;;36.65;19.40;;;10.30;75.90;;;;;;10485980;28;20387;-64
2022/03/20 18:33:00;;;;;;;37.78;18.45;;;10.30;75.90;;;;;;10469885;28;20025;-63
2022/03/20 18:38:03;;;;;;;34.97;17.85;;;10.30;75.90;;;;;;10459445;28;20035;-70
2022/03/20 18:43:04;;;;;;;36.47;19.50;;;10.20;75.90;;;;;;10472147;28;20070;-64
2022/03/20 18:48:06;;;;;;;34.67;18.42;;;10.20;76.20;;;;;;10460727;28;20093;-65
2022/03/20 18:53:06;;;;;;;36.40;19.35;;;10.20;76.40;;;;;;10448696;28;20048;-64
2022/03/20 18:58:07;;;;;;;35.42;18.48;;;10.20;76.70;;;;;;10447691;28;20047;-65
2022/03/20 19:03:10;;;;;;;33.95;18.05;;;10.20;76.80;;;;;;10464198;28;20040;-66
2022/03/20 19:08:13;;;;;;;33.50;18.00;;;10.20;76.90;;;;;;10465169;28;20039;-65
2022/03/20 19:13:14;;;;;;;35.42;17.90;;;10.20;76.90;;;;;;10477971;28;20032;-64
2022/03/20 19:18:15;;;;;;;33.88;17.25;;;10.20;77.50;;;;;;10476022;28;20051;-64
2022/03/20 19:23:16;;;;;;;32.60;16.92;;;10.10;76.90;;;;;;10474678;28;20035;-65
2022/03/20 19:28:18;;;;;;;32.35;17.60;;;10.10;76.90;;;;;;10461276;28;20470;-64
2022/03/20 19:33:18;;;;;;;33.53;17.52;;;10.10;76.90;;;;;;10464774;28;20025;-65
2022/03/20 19:43:38;;;;;;;33.30;17.73;;;10.10;76.90;;;;;;10456232;28;20024;-66
2022/03/20 19:48:39;;;;;;;33.53;17.63;;;10.00;76.80;;;;;;10475905;28;20040;-65
2022/03/20 19:53:40;;;;;;;36.53;19.30;;;10.00;76.90;;;;;;10430622;28;1209843;-64
2022/03/20 19:58:41;;;;;;;32.28;17.73;;;10.00;76.90;;;;;;10446842;28;20036;-65
2022/03/20 20:03:44;;;;;;;34.33;18.20;;;10.00;76.90;;;;;;10475940;28;20023;-64
2022/03/20 20:08:45;;;;;;;36.05;18.58;;;10.00;76.90;;;;;;10473000;28;20044;-64
2022/03/20 20:19:05;;;;;;;37.00;18.30;;;9.90;76.90;;;;;;10476231;28;20025;-64
2022/03/20 20:24:05;;;;;;;34.63;18.63;;;9.90;77.00;;;;;;10476754;28;20677;-64
2022/03/20 20:29:09;;;;;;;34.95;17.35;;;9.90;77.10;;;;;;10453743;28;20681;-64
2022/03/20 20:34:11;;;;;;;35.03;16.85;;;9.90;77.20;;;;;;10471012;28;20028;-64
2022/03/20 20:39:12;;;;;;;36.60;18.10;;;9.90;77.20;;;;;;10475766;28;20641;-63
2022/03/20 20:44:16;;;;;;;33.80;17.60;;;9.90;77.20;;;;;;10467834;28;20024;-61
2022/03/20 20:49:17;;;;;;;33.40;17.50;;;9.80;77.30;;;;;;10473384;28;20227;-63
2022/03/20 20:54:18;;;;;;;31.27;16.80;;;9.80;77.50;;;;;;10474915;28;20045;-64
2022/03/20 20:59:20;;;;;;;36.95;16.75;;;9.80;77.60;;;;;;10475734;28;20074;-64
2022/03/20 21:04:20;;;;;;;34.35;17.08;;;9.80;77.60;;;;;;10468582;28;20048;-62
2022/03/20 21:14:41;;;;;;;32.53;17.52;;;9.80;77.80;;;;;;10481708;28;20032;-63
2022/03/20 21:19:42;;;;;;;39.35;17.63;;;9.70;77.80;;;;;;10484416;28;20496;-63
2022/03/20 21:24:43;;;;;;;33.00;16.95;;;9.70;77.90;;;;;;10485461;28;20030;-64
2022/03/20 21:29:44;;;;;;;33.67;18.55;;;9.70;78.00;;;;;;10484677;28;20075;-64
2022/03/20 21:34:45;;;;;;;31.60;17.38;;;9.70;78.00;;;;;;10482579;28;20016;-63
2022/03/20 21:39:46;;;;;;;31.55;16.85;;;9.70;77.90;;;;;;10479822;28;20032;-62
2022/03/20 21:44:47;;;;;;;31.98;17.02;;;9.60;77.90;;;;;;10462388;28;20525;-62
2022/03/20 21:49:48;;;;;;;34.45;17.00;;;9.60;77.90;;;;;;10481744;28;20041;-62
2022/03/20 21:54:49;;;;;;;34.17;16.98;;;9.60;78.00;;;;;;10477830;28;20118;-63
2022/03/20 21:59:50;;;;;;;33.10;17.27;;;9.60;78.00;;;;;;10475114;28;20494;-63
2022/03/20 22:04:51;;;;;;;36.78;18.20;;;9.70;78.10;;;;;;10461343;28;20012;-62
2022/03/20 22:09:52;;;;;;;35.22;17.35;;;9.50;77.90;;;;;;10468527;28;20148;-65
2022/03/20 22:14:53;;;;;;;33.97;17.23;;;9.50;78.00;;;;;;10452191;28;20040;-64
2022/03/20 22:19:54;;;;;;;32.92;17.38;;;9.50;78.00;;;;;;10450742;28;20045;-64
2022/03/20 22:24:57;;;;;;;32.85;17.23;;;9.50;78.60;;;;;;10449603;28;20024;-65
2022/03/20 22:29:58;;;;;;;33.17;17.30;;;9.50;78.00;;;;;;10459329;28;20123;-64
2022/03/20 22:40:21;;;;;;;34.78;18.27;;;9.40;78.00;;;;;;10468107;28;20036;-64
2022/03/20 22:45:29;;;;;;;29.92;16.05;;;9.40;78.00;;;;;;10477750;28;20028;-64
2022/03/20 22:50:29;;;;;;;29.23;16.25;;;9.40;77.90;;;;;;10473920;28;20040;-63
2022/03/20 22:55:32;;;;;;;31.65;17.02;;;9.50;78.50;;;;;;10457650;28;20053;-65
2022/03/20 23:00:32;;;;;;;31.50;16.65;;;9.30;77.90;;;;;;10481487;28;20035;-64
2022/03/20 23:05:33;;;;;;;27.33;15.20;;;9.40;78.00;;;;;;10484609;28;20101;-63
2022/03/20 23:10:34;;;;;;;28.92;16.10;;;9.30;77.90;;;;;;10483877;28;20040;-65
2022/03/20 23:15:35;;;;;;;29.63;16.50;;;9.30;77.90;;;;;;10480061;28;20536;-64
2022/03/20 23:20:36;;;;;;;27.73;15.45;;;9.30;77.90;;;;;;10484739;28;20372;-65
2022/03/20 23:25:37;;;;;;;29.38;15.80;;;9.30;77.90;;;;;;10484578;28;20044;-65
2022/03/20 23:30:38;;;;;;;30.05;16.00;;;9.20;77.80;;;;;;10472388;28;20139;-62
2022/03/20 23:35:41;;;;;;;29.20;15.65;;;9.20;77.80;;;;;;10484607;28;20017;-65
2022/03/20 23:43:14;;;;;;;28.63;15.80;;;9.20;77.80;;;;;;10484701;28;20074;-65
2022/03/20 23:46:08;;;;;;;25.88;15.25;;;9.20;77.80;;;;;;10482451;28;20056;-64
2022/03/20 23:51:10;;;;;;;25.38;14.43;;;9.20;77.90;;;;;;10451027;28;20032;-65
2022/03/20 23:56:11;;;;;;;24.92;13.80;;;9.10;77.80;;;;;;10483744;28;20136;-65
